sensor_id;sensor_type;location;lat;lon;timestamp;temperature;humidity
75899;DHT22;64576;50.460;4.866;2023-04-25T00:01:17;5.99;87.93
75899;DHT22;64576;50.460;4.866;2023-04-25T00:03:42;5.99;88.38
75899;DHT22;64576;50.460;4.866;2023-04-25T00:06:08;5.99;87.95
75899;DHT22;64576;50.460;4.866;2023-04-25T00:08:33;6.07;87.29
75899;DHT22;64576;50.460;4.866;2023-04-25T00:11:00;6.09;87.17
75899;DHT22;64576;50.460;4.866;2023-04-25T00:13:25;6.17;87.03
75899;DHT22;64576;50.460;4.866;2023-04-25T00:15:52;6.11;87.11
75899;DHT22;64576;50.460;4.866;2023-04-25T00:18:18;6.18;87.06
75899;DHT22;64576;50.460;4.866;2023-04-25T00:20:44;6.13;87.86
75899;DHT22;64576;50.460;4.866;2023-04-25T00:23:21;6.11;88.23
75899;DHT22;64576;50.460;4.866;2023-04-25T00:25:48;6.16;88.09
75899;DHT22;64576;50.460;4.866;2023-04-25T00:28:14;6.16;88.07
75899;DHT22;64576;50.460;4.866;2023-04-25T00:30:40;6.18;87.93
75899;DHT22;64576;50.460;4.866;2023-04-25T00:33:06;6.16;88.50
75899;DHT22;64576;50.460;4.866;2023-04-25T00:35:31;6.14;88.77
75899;DHT22;64576;50.460;4.866;2023-04-25T00:37:57;6.13;88.90
75899;DHT22;64576;50.460;4.866;2023-04-25T00:40:22;6.13;89.05
75899;DHT22;64576;50.460;4.866;2023-04-25T00:42:49;6.11;89.04
75899;DHT22;64576;50.460;4.866;2023-04-25T00:45:17;6.10;89.80
75899;DHT22;64576;50.460;4.866;2023-04-25T00:47:42;6.13;87.93
75899;DHT22;64576;50.460;4.866;2023-04-25T00:50:09;6.20;88.77
75899;DHT22;64576;50.460;4.866;2023-04-25T00:52:34;6.17;87.67
75899;DHT22;64576;50.460;4.866;2023-04-25T00:55:00;6.16;88.56
75899;DHT22;64576;50.460;4.866;2023-04-25T00:57:26;6.10;88.50
75899;DHT22;64576;50.460;4.866;2023-04-25T00:59:52;6.16;87.73
75899;DHT22;64576;50.460;4.866;2023-04-25T01:02:18;6.13;88.25
75899;DHT22;64576;50.460;4.866;2023-04-25T01:04:46;6.13;88.68
75899;DHT22;64576;50.460;4.866;2023-04-25T01:07:12;6.11;88.69
75899;DHT22;64576;50.460;4.866;2023-04-25T01:09:37;6.11;88.99
75899;DHT22;64576;50.460;4.866;2023-04-25T01:12:03;6.11;88.77
75899;DHT22;64576;50.460;4.866;2023-04-25T01:14:28;6.10;88.27
75899;DHT22;64576;50.460;4.866;2023-04-25T01:16:55;6.10;88.61
75899;DHT22;64576;50.460;4.866;2023-04-25T01:19:20;6.03;88.73
75899;DHT22;64576;50.460;4.866;2023-04-25T01:21:46;6.01;89.04
75899;DHT22;64576;50.460;4.866;2023-04-25T01:24:13;6.07;88.74
75899;DHT22;64576;50.460;4.866;2023-04-25T01:26:39;6.06;89.04
75899;DHT22;64576;50.460;4.866;2023-04-25T01:29:09;6.11;88.30
75899;DHT22;64576;50.460;4.866;2023-04-25T01:31:36;6.06;88.86
75899;DHT22;64576;50.460;4.866;2023-04-25T01:34:01;6.04;89.53
75899;DHT22;64576;50.460;4.866;2023-04-25T01:36:28;6.03;89.25
75899;DHT22;64576;50.460;4.866;2023-04-25T01:38:53;6.06;88.44
75899;DHT22;64576;50.460;4.866;2023-04-25T01:41:19;6.13;89.52
75899;DHT22;64576;50.460;4.866;2023-04-25T01:43:45;6.04;89.53
75899;DHT22;64576;50.460;4.866;2023-04-25T01:46:11;6.06;89.59
75899;DHT22;64576;50.460;4.866;2023-04-25T01:48:37;6.06;89.97
75899;DHT22;64576;50.460;4.866;2023-04-25T01:51:02;6.04;89.71
75899;DHT22;64576;50.460;4.866;2023-04-25T01:53:28;6.03;90.03
75899;DHT22;64576;50.460;4.866;2023-04-25T01:55:54;6.04;89.69
75899;DHT22;64576;50.460;4.866;2023-04-25T01:58:19;6.04;90.16
75899;DHT22;64576;50.460;4.866;2023-04-25T02:00:46;5.96;90.14
75899;DHT22;64576;50.460;4.866;2023-04-25T02:03:11;5.96;90.23
75899;DHT22;64576;50.460;4.866;2023-04-25T02:05:38;5.96;90.40
75899;DHT22;64576;50.460;4.866;2023-04-25T02:08:09;5.99;90.26
75899;DHT22;64576;50.460;4.866;2023-04-25T02:10:35;5.96;90.25
75899;DHT22;64576;50.460;4.866;2023-04-25T02:13:01;5.92;90.47
75899;DHT22;64576;50.460;4.866;2023-04-25T02:15:27;5.94;91.00
75899;DHT22;64576;50.460;4.866;2023-04-25T02:17:52;5.90;91.16
75899;DHT22;64576;50.460;4.866;2023-04-25T02:20:20;5.90;90.66
75899;DHT22;64576;50.460;4.866;2023-04-25T02:22:46;5.86;91.47
75899;DHT22;64576;50.460;4.866;2023-04-25T02:25:12;5.83;91.60
75899;DHT22;64576;50.460;4.866;2023-04-25T02:27:38;5.82;91.58
75899;DHT22;64576;50.460;4.866;2023-04-25T02:30:04;5.82;91.78
75899;DHT22;64576;50.460;4.866;2023-04-25T02:32:31;5.79;91.97
75899;DHT22;64576;50.460;4.866;2023-04-25T02:34:57;5.79;92.60
75899;DHT22;64576;50.460;4.866;2023-04-25T02:37:27;5.74;92.74
75899;DHT22;64576;50.460;4.866;2023-04-25T02:39:53;5.79;92.72
75899;DHT22;64576;50.460;4.866;2023-04-25T02:42:18;5.77;92.81
75899;DHT22;64576;50.460;4.866;2023-04-25T02:44:43;5.77;92.25
75899;DHT22;64576;50.460;4.866;2023-04-25T02:47:09;5.80;92.08
75899;DHT22;64576;50.460;4.866;2023-04-25T02:49:34;5.80;90.47
75899;DHT22;64576;50.460;4.866;2023-04-25T02:51:59;5.77;90.34
75899;DHT22;64576;50.460;4.866;2023-04-25T02:54:25;5.73;90.11
75899;DHT22;64576;50.460;4.866;2023-04-25T02:56:50;5.73;91.10
75899;DHT22;64576;50.460;4.866;2023-04-25T02:59:16;5.66;91.33
75899;DHT22;64576;50.460;4.866;2023-04-25T03:01:41;5.58;91.28
75899;DHT22;64576;50.460;4.866;2023-04-25T03:04:07;5.56;90.58
75899;DHT22;64576;50.460;4.866;2023-04-25T03:06:32;5.54;90.90
75899;DHT22;64576;50.460;4.866;2023-04-25T03:08:57;5.48;90.38
75899;DHT22;64576;50.460;4.866;2023-04-25T03:11:25;5.44;90.23
75899;DHT22;64576;50.460;4.866;2023-04-25T03:13:51;5.41;90.90
75899;DHT22;64576;50.460;4.866;2023-04-25T03:16:17;5.36;90.66
75899;DHT22;64576;50.460;4.866;2023-04-25T03:18:42;5.41;91.68
75899;DHT22;64576;50.460;4.866;2023-04-25T03:21:08;5.35;90.43
75899;DHT22;64576;50.460;4.866;2023-04-25T03:23:33;5.34;89.99
75899;DHT22;64576;50.460;4.866;2023-04-25T03:25:59;5.32;90.27
75899;DHT22;64576;50.460;4.866;2023-04-25T03:28:24;5.25;90.69
75899;DHT22;64576;50.460;4.866;2023-04-25T03:30:50;5.25;92.30
75899;DHT22;64576;50.460;4.866;2023-04-25T03:33:15;5.23;91.92
75899;DHT22;64576;50.460;4.866;2023-04-25T03:35:41;5.24;92.46
75899;DHT22;64576;50.460;4.866;2023-04-25T03:38:07;5.24;91.91
75899;DHT22;64576;50.460;4.866;2023-04-25T03:40:33;5.18;91.39
75899;DHT22;64576;50.460;4.866;2023-04-25T03:42:58;5.10;91.94
75899;DHT22;64576;50.460;4.866;2023-04-25T03:45:24;5.11;91.19
75899;DHT22;64576;50.460;4.866;2023-04-25T03:47:49;5.10;91.30
75899;DHT22;64576;50.460;4.866;2023-04-25T03:50:15;5.07;91.68
75899;DHT22;64576;50.460;4.866;2023-04-25T03:52:40;5.07;91.59
75899;DHT22;64576;50.460;4.866;2023-04-25T03:55:06;5.04;91.28
75899;DHT22;64576;50.460;4.866;2023-04-25T03:57:32;5.03;92.07
75899;DHT22;64576;50.460;4.866;2023-04-25T03:59:57;5.00;91.51
75899;DHT22;64576;50.460;4.866;2023-04-25T04:02:22;5.00;92.02
75899;DHT22;64576;50.460;4.866;2023-04-25T04:04:48;4.97;92.45
75899;DHT22;64576;50.460;4.866;2023-04-25T04:07:13;4.94;93.47
75899;DHT22;64576;50.460;4.866;2023-04-25T04:09:39;4.94;92.72
75899;DHT22;64576;50.460;4.866;2023-04-25T04:12:04;4.94;93.42
75899;DHT22;64576;50.460;4.866;2023-04-25T04:14:30;4.93;93.13
75899;DHT22;64576;50.460;4.866;2023-04-25T04:16:55;4.91;92.68
75899;DHT22;64576;50.460;4.866;2023-04-25T04:19:20;4.87;93.67
75899;DHT22;64576;50.460;4.866;2023-04-25T04:21:46;4.84;94.06
75899;DHT22;64576;50.460;4.866;2023-04-25T04:24:11;4.81;93.95
75899;DHT22;64576;50.460;4.866;2023-04-25T04:26:36;4.79;94.12
75899;DHT22;64576;50.460;4.866;2023-04-25T04:29:03;4.81;93.80
75899;DHT22;64576;50.460;4.866;2023-04-25T04:31:29;4.81;94.27
75899;DHT22;64576;50.460;4.866;2023-04-25T04:33:55;4.79;94.69
75899;DHT22;64576;50.460;4.866;2023-04-25T04:36:20;4.77;95.09
75899;DHT22;64576;50.460;4.866;2023-04-25T04:38:47;4.75;95.13
75899;DHT22;64576;50.460;4.866;2023-04-25T04:41:12;4.70;95.44
75899;DHT22;64576;50.460;4.866;2023-04-25T04:43:38;4.68;95.73
75899;DHT22;64576;50.460;4.866;2023-04-25T04:46:04;4.65;96.03
75899;DHT22;64576;50.460;4.866;2023-04-25T04:48:31;4.66;95.77
75899;DHT22;64576;50.460;4.866;2023-04-25T04:50:59;4.68;96.06
75899;DHT22;64576;50.460;4.866;2023-04-25T04:53:25;4.69;96.22
75899;DHT22;64576;50.460;4.866;2023-04-25T04:55:50;4.69;95.70
75899;DHT22;64576;50.460;4.866;2023-04-25T04:58:16;4.69;96.24
75899;DHT22;64576;50.460;4.866;2023-04-25T05:00:41;4.69;96.12
75899;DHT22;64576;50.460;4.866;2023-04-25T05:03:07;4.69;96.63
75899;DHT22;64576;50.460;4.866;2023-04-25T05:05:33;4.69;96.77
75899;DHT22;64576;50.460;4.866;2023-04-25T05:07:58;4.72;96.88
75899;DHT22;64576;50.460;4.866;2023-04-25T05:10:24;4.70;96.71
75899;DHT22;64576;50.460;4.866;2023-04-25T05:12:49;4.70;97.00
75899;DHT22;64576;50.460;4.866;2023-04-25T05:15:15;4.72;96.98
75899;DHT22;64576;50.460;4.866;2023-04-25T05:17:40;4.73;96.94
75899;DHT22;64576;50.460;4.866;2023-04-25T05:20:07;4.73;97.03
75899;DHT22;64576;50.460;4.866;2023-04-25T05:22:34;4.73;97.13
75899;DHT22;64576;50.460;4.866;2023-04-25T05:24:59;4.75;97.12
75899;DHT22;64576;50.460;4.866;2023-04-25T05:27:25;4.79;97.48
75899;DHT22;64576;50.460;4.866;2023-04-25T05:29:50;4.81;97.37
75899;DHT22;64576;50.460;4.866;2023-04-25T05:32:17;4.83;97.31
75899;DHT22;64576;50.460;4.866;2023-04-25T05:34:42;4.90;97.73
75899;DHT22;64576;50.460;4.866;2023-04-25T05:37:08;4.93;97.67
75899;DHT22;64576;50.460;4.866;2023-04-25T05:39:33;4.99;97.35
75899;DHT22;64576;50.460;4.866;2023-04-25T05:41:59;5.04;97.55
75899;DHT22;64576;50.460;4.866;2023-04-25T05:44:24;5.04;97.52
75899;DHT22;64576;50.460;4.866;2023-04-25T05:46:50;5.10;97.69
75899;DHT22;64576;50.460;4.866;2023-04-25T05:49:15;5.10;97.24
75899;DHT22;64576;50.460;4.866;2023-04-25T05:51:41;5.10;97.36
75899;DHT22;64576;50.460;4.866;2023-04-25T05:54:06;5.08;96.04
75899;DHT22;64576;50.460;4.866;2023-04-25T05:56:31;5.07;95.64
75899;DHT22;64576;50.460;4.866;2023-04-25T05:58:57;5.11;95.25
75899;DHT22;64576;50.460;4.866;2023-04-25T06:01:23;5.14;95.59
75899;DHT22;64576;50.460;4.866;2023-04-25T06:03:48;5.14;95.07
75899;DHT22;64576;50.460;4.866;2023-04-25T06:06:14;5.23;95.84
75899;DHT22;64576;50.460;4.866;2023-04-25T06:08:40;5.17;93.90
75899;DHT22;64576;50.460;4.866;2023-04-25T06:11:06;5.18;94.07
75899;DHT22;64576;50.460;4.866;2023-04-25T06:13:31;5.20;93.91
75899;DHT22;64576;50.460;4.866;2023-04-25T06:15:57;5.30;94.71
75899;DHT22;64576;50.460;4.866;2023-04-25T06:18:22;5.24;93.26
75899;DHT22;64576;50.460;4.866;2023-04-25T06:20:48;5.28;92.91
75899;DHT22;64576;50.460;4.866;2023-04-25T06:23:13;5.25;92.20
75899;DHT22;64576;50.460;4.866;2023-04-25T06:25:38;5.30;92.25
75899;DHT22;64576;50.460;4.866;2023-04-25T06:28:04;5.34;92.12
75899;DHT22;64576;50.460;4.866;2023-04-25T06:30:29;5.34;91.04
75899;DHT22;64576;50.460;4.866;2023-04-25T06:32:55;5.39;91.25
75899;DHT22;64576;50.460;4.866;2023-04-25T06:35:20;5.51;91.79
75899;DHT22;64576;50.460;4.866;2023-04-25T06:37:46;5.60;91.41
75899;DHT22;64576;50.460;4.866;2023-04-25T06:40:11;5.66;90.59
75899;DHT22;64576;50.460;4.866;2023-04-25T06:42:37;5.80;91.02
75899;DHT22;64576;50.460;4.866;2023-04-25T06:45:02;5.83;89.35
75899;DHT22;64576;50.460;4.866;2023-04-25T06:47:28;5.96;89.84
75899;DHT22;64576;50.460;4.866;2023-04-25T06:49:55;5.99;89.55
75899;DHT22;64576;50.460;4.866;2023-04-25T06:52:20;6.03;90.08
75899;DHT22;64576;50.460;4.866;2023-04-25T06:54:45;5.85;88.58
75899;DHT22;64576;50.460;4.866;2023-04-25T06:57:11;5.97;89.75
75899;DHT22;64576;50.460;4.866;2023-04-25T06:59:36;6.01;89.61
75899;DHT22;64576;50.460;4.866;2023-04-25T07:02:02;6.07;89.12
75899;DHT22;64576;50.460;4.866;2023-04-25T07:04:28;5.94;87.47
75899;DHT22;64576;50.460;4.866;2023-04-25T07:06:54;5.94;86.48
75899;DHT22;64576;50.460;4.866;2023-04-25T07:09:20;6.01;86.93
75899;DHT22;64576;50.460;4.866;2023-04-25T07:11:45;5.96;85.73
75899;DHT22;64576;50.460;4.866;2023-04-25T07:14:11;6.06;86.96
75899;DHT22;64576;50.460;4.866;2023-04-25T07:16:36;6.10;86.58
75899;DHT22;64576;50.460;4.866;2023-04-25T07:19:01;6.18;85.95
75899;DHT22;64576;50.460;4.866;2023-04-25T07:21:27;6.25;86.26
75899;DHT22;64576;50.460;4.866;2023-04-25T07:23:52;6.13;85.27
75899;DHT22;64576;50.460;4.866;2023-04-25T07:26:18;6.16;85.31
75899;DHT22;64576;50.460;4.866;2023-04-25T07:28:43;6.00;85.29
75899;DHT22;64576;50.460;4.866;2023-04-25T07:31:09;6.10;87.14
75899;DHT22;64576;50.460;4.866;2023-04-25T07:33:34;6.14;86.93
75899;DHT22;64576;50.460;4.866;2023-04-25T07:36:00;6.28;87.67
75899;DHT22;64576;50.460;4.866;2023-04-25T07:38:26;6.22;86.70
75899;DHT22;64576;50.460;4.866;2023-04-25T07:40:51;6.21;86.83
75899;DHT22;64576;50.460;4.866;2023-04-25T07:43:16;6.21;87.89
75899;DHT22;64576;50.460;4.866;2023-04-25T07:45:43;6.22;87.90
75899;DHT22;64576;50.460;4.866;2023-04-25T07:48:08;6.28;88.27
75899;DHT22;64576;50.460;4.866;2023-04-25T07:50:34;6.41;88.12
75899;DHT22;64576;50.460;4.866;2023-04-25T07:52:59;6.22;86.15
75899;DHT22;64576;50.460;4.866;2023-04-25T07:55:25;6.49;87.57
75899;DHT22;64576;50.460;4.866;2023-04-25T07:57:51;6.50;85.70
75899;DHT22;64576;50.460;4.866;2023-04-25T08:00:16;6.65;84.63
75899;DHT22;64576;50.460;4.866;2023-04-25T08:02:42;6.86;85.70
75899;DHT22;64576;50.460;4.866;2023-04-25T08:05:07;6.99;83.85
75899;DHT22;64576;50.460;4.866;2023-04-25T08:07:36;7.34;84.07
75899;DHT22;64576;50.460;4.866;2023-04-25T08:10:02;7.35;83.26
75899;DHT22;64576;50.460;4.866;2023-04-25T08:12:27;7.38;81.30
75899;DHT22;64576;50.460;4.866;2023-04-25T08:14:53;7.90;82.40
75899;DHT22;64576;50.460;4.866;2023-04-25T08:17:18;8.08;80.33
75899;DHT22;64576;50.460;4.866;2023-04-25T08:19:44;7.83;78.99
75899;DHT22;64576;50.460;4.866;2023-04-25T08:22:09;8.08;78.23
75899;DHT22;64576;50.460;4.866;2023-04-25T08:24:35;8.11;76.57
75899;DHT22;64576;50.460;4.866;2023-04-25T08:27:00;7.94;74.95
75899;DHT22;64576;50.460;4.866;2023-04-25T08:29:25;7.91;78.49
75899;DHT22;64576;50.460;4.866;2023-04-25T08:31:51;7.82;76.06
75899;DHT22;64576;50.460;4.866;2023-04-25T08:34:18;8.06;76.89
75899;DHT22;64576;50.460;4.866;2023-04-25T08:36:45;8.18;77.94
75899;DHT22;64576;50.460;4.866;2023-04-25T08:39:10;8.16;77.50
75899;DHT22;64576;50.460;4.866;2023-04-25T08:41:37;7.80;75.13
75899;DHT22;64576;50.460;4.866;2023-04-25T08:44:03;7.86;75.99
75899;DHT22;64576;50.460;4.866;2023-04-25T08:46:30;7.91;79.74
75899;DHT22;64576;50.460;4.866;2023-04-25T08:49:00;7.75;75.48
75899;DHT22;64576;50.460;4.866;2023-04-25T08:51:26;7.66;78.07
75899;DHT22;64576;50.460;4.866;2023-04-25T08:53:53;7.97;77.38
75899;DHT22;64576;50.460;4.866;2023-04-25T08:56:19;7.75;75.79
75899;DHT22;64576;50.460;4.866;2023-04-25T08:58:50;7.91;75.48
75899;DHT22;64576;50.460;4.866;2023-04-25T09:01:16;8.04;75.96
75899;DHT22;64576;50.460;4.866;2023-04-25T09:03:44;8.37;78.81
75899;DHT22;64576;50.460;4.866;2023-04-25T09:06:11;8.37;76.36
75899;DHT22;64576;50.460;4.866;2023-04-25T09:08:37;8.25;76.80
75899;DHT22;64576;50.460;4.866;2023-04-25T09:11:02;8.04;76.54
75899;DHT22;64576;50.460;4.866;2023-04-25T09:13:28;8.01;76.73
75899;DHT22;64576;50.460;4.866;2023-04-25T09:15:56;8.03;75.18
75899;DHT22;64576;50.460;4.866;2023-04-25T09:20:54;8.10;74.46
75899;DHT22;64576;50.460;4.866;2023-04-25T09:23:21;8.20;75.43
75899;DHT22;64576;50.460;4.866;2023-04-25T09:25:50;8.59;76.71
75899;DHT22;64576;50.460;4.866;2023-04-25T09:28:16;8.55;72.25
75899;DHT22;64576;50.460;4.866;2023-04-25T09:30:47;8.61;76.05
75899;DHT22;64576;50.460;4.866;2023-04-25T09:33:13;8.87;73.96
75899;DHT22;64576;50.460;4.866;2023-04-25T09:35:43;9.21;72.47
75899;DHT22;64576;50.460;4.866;2023-04-25T09:38:10;9.66;74.02
75899;DHT22;64576;50.460;4.866;2023-04-25T09:40:41;10.24;69.83
75899;DHT22;64576;50.460;4.866;2023-04-25T09:43:24;10.27;69.60
75899;DHT22;64576;50.460;4.866;2023-04-25T09:45:52;10.80;66.96
75899;DHT22;64576;50.460;4.866;2023-04-25T09:48:20;10.99;67.55
75899;DHT22;64576;50.460;4.866;2023-04-25T09:51:03;10.64;67.10
75899;DHT22;64576;50.460;4.866;2023-04-25T09:53:29;11.44;65.40
75899;DHT22;64576;50.460;4.866;2023-04-25T09:55:55;11.62;64.13
75899;DHT22;64576;50.460;4.866;2023-04-25T09:58:23;12.13;64.90
75899;DHT22;64576;50.460;4.866;2023-04-25T10:00:50;12.98;60.99
75899;DHT22;64576;50.460;4.866;2023-04-25T10:03:17;13.99;64.60
75899;DHT22;64576;50.460;4.866;2023-04-25T10:05:43;14.15;63.48
75899;DHT22;64576;50.460;4.866;2023-04-25T10:08:11;13.51;56.63
75899;DHT22;64576;50.460;4.866;2023-04-25T10:10:40;12.26;58.00
75899;DHT22;64576;50.460;4.866;2023-04-25T10:13:06;11.24;59.40
75899;DHT22;64576;50.460;4.866;2023-04-25T10:15:35;12.38;60.58
75899;DHT22;64576;50.460;4.866;2023-04-25T10:18:02;11.64;58.55
75899;DHT22;64576;50.460;4.866;2023-04-25T10:20:28;13.32;59.73
75899;DHT22;64576;50.460;4.866;2023-04-25T10:22:57;12.05;60.82
75899;DHT22;64576;50.460;4.866;2023-04-25T10:25:23;11.61;61.81
75899;DHT22;64576;50.460;4.866;2023-04-25T10:27:53;10.86;61.91
75899;DHT22;64576;50.460;4.866;2023-04-25T10:30:18;10.64;66.31
75899;DHT22;64576;50.460;4.866;2023-04-25T10:32:45;10.41;70.45
75899;DHT22;64576;50.460;4.866;2023-04-25T10:35:19;10.36;68.33
75899;DHT22;64576;50.460;4.866;2023-04-25T10:38:00;9.75;71.04
75899;DHT22;64576;50.460;4.866;2023-04-25T10:40:28;9.42;71.08
75899;DHT22;64576;50.460;4.866;2023-04-25T10:42:54;9.21;74.29
75899;DHT22;64576;50.460;4.866;2023-04-25T10:45:21;9.20;73.07
75899;DHT22;64576;50.460;4.866;2023-04-25T10:47:47;9.38;77.24
75899;DHT22;64576;50.460;4.866;2023-04-25T10:50:14;9.21;75.56
75899;DHT22;64576;50.460;4.866;2023-04-25T10:52:41;10.82;73.08
75899;DHT22;64576;50.460;4.866;2023-04-25T10:55:07;13.51;64.52
75899;DHT22;64576;50.460;4.866;2023-04-25T10:57:44;12.40;65.28
75899;DHT22;64576;50.460;4.866;2023-04-25T11:00:19;11.35;67.13
75899;DHT22;64576;50.460;4.866;2023-04-25T11:02:52;10.42;67.98
75899;DHT22;64576;50.460;4.866;2023-04-25T11:05:35;10.18;70.33
75899;DHT22;64576;50.460;4.866;2023-04-25T11:08:01;9.75;72.07
75899;DHT22;64576;50.460;4.866;2023-04-25T11:10:28;9.09;72.65
75899;DHT22;64576;50.460;4.866;2023-04-25T11:12:54;8.93;76.65
75899;DHT22;64576;50.460;4.866;2023-04-25T11:15:20;8.71;76.48
75899;DHT22;64576;50.460;4.866;2023-04-25T11:17:45;8.42;78.08
75899;DHT22;64576;50.460;4.866;2023-04-25T11:20:12;8.25;78.38
75899;DHT22;64576;50.460;4.866;2023-04-25T11:22:39;8.11;80.65
75899;DHT22;64576;50.460;4.866;2023-04-25T11:25:09;7.85;79.34
75899;DHT22;64576;50.460;4.866;2023-04-25T11:27:52;7.42;76.83
75899;DHT22;64576;50.460;4.866;2023-04-25T11:30:18;7.38;81.96
75899;DHT22;64576;50.460;4.866;2023-04-25T11:32:44;7.56;82.47
75899;DHT22;64576;50.460;4.866;2023-04-25T11:35:10;7.97;84.96
75899;DHT22;64576;50.460;4.866;2023-04-25T11:37:36;8.17;82.08
75899;DHT22;64576;50.460;4.866;2023-04-25T11:40:03;8.59;81.86
75899;DHT22;64576;50.460;4.866;2023-04-25T11:42:30;8.38;74.54
75899;DHT22;64576;50.460;4.866;2023-04-25T11:44:55;8.72;76.93
75899;DHT22;64576;50.460;4.866;2023-04-25T11:47:30;9.41;77.73
75899;DHT22;64576;50.460;4.866;2023-04-25T11:49:55;9.59;73.41
75899;DHT22;64576;50.460;4.866;2023-04-25T11:52:22;10.07;73.11
75899;DHT22;64576;50.460;4.866;2023-04-25T11:54:47;10.40;74.40
75899;DHT22;64576;50.460;4.866;2023-04-25T11:57:13;10.59;72.33
75899;DHT22;64576;50.460;4.866;2023-04-25T11:59:38;10.88;75.27
75899;DHT22;64576;50.460;4.866;2023-04-25T12:02:04;11.67;72.05
75899;DHT22;64576;50.460;4.866;2023-04-25T12:04:32;12.47;68.11
75899;DHT22;64576;50.460;4.866;2023-04-25T12:06:57;12.24;63.70
75899;DHT22;64576;50.460;4.866;2023-04-25T12:09:33;14.20;63.18
75899;DHT22;64576;50.460;4.866;2023-04-25T12:11:59;15.23;58.89
75899;DHT22;64576;50.460;4.866;2023-04-25T12:14:29;16.70;51.22
75899;DHT22;64576;50.460;4.866;2023-04-25T12:16:58;16.08;50.45
75899;DHT22;64576;50.460;4.866;2023-04-25T12:19:24;16.63;58.84
75899;DHT22;64576;50.460;4.866;2023-04-25T12:21:50;17.03;57.25
75899;DHT22;64576;50.460;4.866;2023-04-25T12:24:18;17.53;50.90
75899;DHT22;64576;50.460;4.866;2023-04-25T12:26:49;15.49;56.51
75899;DHT22;64576;50.460;4.866;2023-04-25T12:29:34;15.42;49.71
75899;DHT22;64576;50.460;4.866;2023-04-25T12:31:59;15.97;55.94
75899;DHT22;64576;50.460;4.866;2023-04-25T12:34:27;14.88;52.29
75899;DHT22;64576;50.460;4.866;2023-04-25T12:36:53;15.12;49.67
75899;DHT22;64576;50.460;4.866;2023-04-25T12:39:23;16.23;52.11
75899;DHT22;64576;50.460;4.866;2023-04-25T12:41:51;15.44;47.14
75899;DHT22;64576;50.460;4.866;2023-04-25T12:44:20;13.58;53.83
75899;DHT22;64576;50.460;4.866;2023-04-25T12:46:47;13.22;52.96
75899;DHT22;64576;50.460;4.866;2023-04-25T12:49:12;12.74;57.01
75899;DHT22;64576;50.460;4.866;2023-04-25T12:51:38;11.95;59.48
75899;DHT22;64576;50.460;4.866;2023-04-25T12:54:04;11.42;55.54
75899;DHT22;64576;50.460;4.866;2023-04-25T12:56:31;11.26;58.68
75899;DHT22;64576;50.460;4.866;2023-04-25T12:58:57;11.34;58.28
75899;DHT22;64576;50.460;4.866;2023-04-25T13:01:23;10.88;59.80
75899;DHT22;64576;50.460;4.866;2023-04-25T13:03:49;10.85;62.88
75899;DHT22;64576;50.460;4.866;2023-04-25T13:06:15;10.64;62.06
75899;DHT22;64576;50.460;4.866;2023-04-25T13:08:41;10.41;62.78
75899;DHT22;64576;50.460;4.866;2023-04-25T13:11:07;10.27;63.27
75899;DHT22;64576;50.460;4.866;2023-04-25T13:13:33;9.92;65.23
75899;DHT22;64576;50.460;4.866;2023-04-25T13:16:03;10.14;65.98
75899;DHT22;64576;50.460;4.866;2023-04-25T13:18:30;9.85;65.04
75899;DHT22;64576;50.460;4.866;2023-04-25T13:20:56;9.99;65.42
75899;DHT22;64576;50.460;4.866;2023-04-25T13:23:22;10.40;64.87
75899;DHT22;64576;50.460;4.866;2023-04-25T13:25:48;10.96;62.87
75899;DHT22;64576;50.460;4.866;2023-04-25T13:28:13;11.40;60.07
75899;DHT22;64576;50.460;4.866;2023-04-25T13:30:40;12.06;58.53
75899;DHT22;64576;50.460;4.866;2023-04-25T13:33:05;12.30;58.33
75899;DHT22;64576;50.460;4.866;2023-04-25T13:35:33;14.39;53.82
75899;DHT22;64576;50.460;4.866;2023-04-25T13:37:58;15.28;49.44
75899;DHT22;64576;50.460;4.866;2023-04-25T13:40:24;15.70;47.09
75899;DHT22;64576;50.460;4.866;2023-04-25T13:42:49;14.91;47.04
75899;DHT22;64576;50.460;4.866;2023-04-25T13:45:16;17.25;46.21
75899;DHT22;64576;50.460;4.866;2023-04-25T13:47:41;16.32;48.13
75899;DHT22;64576;50.460;4.866;2023-04-25T13:50:07;14.30;50.47
75899;DHT22;64576;50.460;4.866;2023-04-25T13:52:35;13.03;56.70
75899;DHT22;64576;50.460;4.866;2023-04-25T13:55:00;12.50;56.88
75899;DHT22;64576;50.460;4.866;2023-04-25T13:57:28;12.68;54.89
75899;DHT22;64576;50.460;4.866;2023-04-25T13:59:54;12.36;52.74
75899;DHT22;64576;50.460;4.866;2023-04-25T14:02:20;12.45;55.31
75899;DHT22;64576;50.460;4.866;2023-04-25T14:04:45;12.58;53.00
75899;DHT22;64576;50.460;4.866;2023-04-25T14:07:11;12.71;57.07
75899;DHT22;64576;50.460;4.866;2023-04-25T14:09:36;12.44;54.31
75899;DHT22;64576;50.460;4.866;2023-04-25T14:12:02;11.81;54.95
75899;DHT22;64576;50.460;4.866;2023-04-25T14:14:27;12.40;56.65
75899;DHT22;64576;50.460;4.866;2023-04-25T14:16:53;12.15;54.80
75899;DHT22;64576;50.460;4.866;2023-04-25T14:19:22;12.36;57.31
75899;DHT22;64576;50.460;4.866;2023-04-25T14:21:48;12.82;53.64
75899;DHT22;64576;50.460;4.866;2023-04-25T14:24:14;13.12;54.62
75899;DHT22;64576;50.460;4.866;2023-04-25T14:26:39;13.24;50.53
75899;DHT22;64576;50.460;4.866;2023-04-25T14:29:06;12.96;51.93
75899;DHT22;64576;50.460;4.866;2023-04-25T14:31:37;14.25;49.39
75899;DHT22;64576;50.460;4.866;2023-04-25T14:34:02;15.02;48.31
75899;DHT22;64576;50.460;4.866;2023-04-25T14:36:28;16.81;45.93
75899;DHT22;64576;50.460;4.866;2023-04-25T14:38:54;15.05;48.15
75899;DHT22;64576;50.460;4.866;2023-04-25T14:41:19;13.91;48.66
75899;DHT22;64576;50.460;4.866;2023-04-25T14:43:44;13.00;54.22
75899;DHT22;64576;50.460;4.866;2023-04-25T14:46:10;13.03;51.95
75899;DHT22;64576;50.460;4.866;2023-04-25T14:48:36;12.34;52.28
75899;DHT22;64576;50.460;4.866;2023-04-25T14:51:02;12.13;54.06
75899;DHT22;64576;50.460;4.866;2023-04-25T14:53:27;12.65;57.51
75899;DHT22;64576;50.460;4.866;2023-04-25T14:55:53;12.40;53.01
75899;DHT22;64576;50.460;4.866;2023-04-25T14:58:19;12.45;52.74
75899;DHT22;64576;50.460;4.866;2023-04-25T15:00:45;12.17;48.97
75899;DHT22;64576;50.460;4.866;2023-04-25T15:03:11;12.32;50.82
75899;DHT22;64576;50.460;4.866;2023-04-25T15:05:38;14.20;45.19
75899;DHT22;64576;50.460;4.866;2023-04-25T15:08:04;16.05;43.54
75899;DHT22;64576;50.460;4.866;2023-04-25T15:10:29;16.55;41.52
75899;DHT22;64576;50.460;4.866;2023-04-25T15:12:55;18.28;37.90
75899;DHT22;64576;50.460;4.866;2023-04-25T15:15:20;16.25;38.89
75899;DHT22;64576;50.460;4.866;2023-04-25T15:17:46;14.95;40.28
75899;DHT22;64576;50.460;4.866;2023-04-25T15:20:13;16.85;39.80
75899;DHT22;64576;50.460;4.866;2023-04-25T15:22:40;15.43;42.94
75899;DHT22;64576;50.460;4.866;2023-04-25T15:25:06;13.55;48.84
75899;DHT22;64576;50.460;4.866;2023-04-25T15:27:35;12.37;51.28
75899;DHT22;64576;50.460;4.866;2023-04-25T15:30:07;12.09;53.08
75899;DHT22;64576;50.460;4.866;2023-04-25T15:32:33;11.92;55.44
75899;DHT22;64576;50.460;4.866;2023-04-25T15:34:59;12.22;53.35
75899;DHT22;64576;50.460;4.866;2023-04-25T15:37:25;13.88;47.46
75899;DHT22;64576;50.460;4.866;2023-04-25T15:40:03;15.38;46.51